sensor_id;sensor_type;location;lat;lon;timestamp;temperature;humidity
22337;DHT22;14992;50.844;4.418;2024-03-23T02:13:59;9.40;99.90
22337;DHT22;14992;50.844;4.418;2024-03-23T02:16:26;9.40;99.90
22337;DHT22;14992;50.844;4.418;2024-03-23T02:18:53;9.30;99.90
22337;DHT22;14992;50.844;4.418;2024-03-23T02:21:21;9.40;99.90
22337;DHT22;14992;50.844;4.418;2024-03-23T02:23:49;9.50;99.90
22337;DHT22;14992;50.844;4.418;2024-03-23T02:26:17;9.50;99.90
22337;DHT22;14992;50.844;4.418;2024-03-23T02:28:44;9.50;99.90
22337;DHT22;14992;50.844;4.418;2024-03-23T02:31:12;9.50;99.90
22337;DHT22;14992;50.844;4.418;2024-03-23T02:33:39;9.40;99.90
22337;DHT22;14992;50.844;4.418;2024-03-23T02:36:07;9.40;99.90
22337;DHT22;14992;50.844;4.418;2024-03-23T02:38:34;9.40;99.90
22337;DHT22;14992;50.844;4.418;2024-03-23T02:41:04;9.40;99.90
22337;DHT22;14992;50.844;4.418;2024-03-23T02:43:31;9.40;99.90
22337;DHT22;14992;50.844;4.418;2024-03-23T02:45:59;9.40;99.90
22337;DHT22;14992;50.844;4.418;2024-03-23T02:48:30;9.40;99.90
22337;DHT22;14992;50.844;4.418;2024-03-23T02:50:57;9.40;99.90
22337;DHT22;14992;50.844;4.418;2024-03-23T02:53:24;9.30;99.90
22337;DHT22;14992;50.844;4.418;2024-03-23T02:55:52;9.20;99.90
22337;DHT22;14992;50.844;4.418;2024-03-23T02:58:20;9.10;99.90
22337;DHT22;14992;50.844;4.418;2024-03-23T03:00:48;9.20;99.90
22337;DHT22;14992;50.844;4.418;2024-03-23T03:03:15;9.20;99.90
22337;DHT22;14992;50.844;4.418;2024-03-23T03:05:42;9.30;99.90
22337;DHT22;14992;50.844;4.418;2024-03-23T03:08:09;9.30;99.90
22337;DHT22;14992;50.844;4.418;2024-03-23T03:10:37;9.30;99.90
22337;DHT22;14992;50.844;4.418;2024-03-23T03:13:04;9.30;99.90
22337;DHT22;14992;50.844;4.418;2024-03-23T03:15:33;9.30;99.90
22337;DHT22;14992;50.844;4.418;2024-03-23T03:18:00;9.40;99.90
22337;DHT22;14992;50.844;4.418;2024-03-23T03:20:28;9.40;99.90
22337;DHT22;14992;50.844;4.418;2024-03-23T03:22:54;9.40;99.90
22337;DHT22;14992;50.844;4.418;2024-03-23T03:25:22;9.40;99.90
22337;DHT22;14992;50.844;4.418;2024-03-23T03:27:49;9.30;99.90
22337;DHT22;14992;50.844;4.418;2024-03-23T03:30:17;9.30;99.90
22337;DHT22;14992;50.844;4.418;2024-03-23T03:32:45;9.30;99.90
22337;DHT22;14992;50.844;4.418;2024-03-23T03:35:13;9.20;99.90
22337;DHT22;14992;50.844;4.418;2024-03-23T03:37:39;9.20;99.90
22337;DHT22;14992;50.844;4.418;2024-03-23T03:40:08;9.10;99.90
22337;DHT22;14992;50.844;4.418;2024-03-23T03:42:35;9.20;99.90
22337;DHT22;14992;50.844;4.418;2024-03-23T03:45:03;9.30;99.90
22337;DHT22;14992;50.844;4.418;2024-03-23T03:47:31;9.30;99.90
22337;DHT22;14992;50.844;4.418;2024-03-23T03:50:00;9.20;99.90
22337;DHT22;14992;50.844;4.418;2024-03-23T03:52:26;9.10;99.90
22337;DHT22;14992;50.844;4.418;2024-03-23T03:55:01;9.00;99.90
22337;DHT22;14992;50.844;4.418;2024-03-23T03:57:29;8.90;99.90
22337;DHT22;14992;50.844;4.418;2024-03-23T03:59:56;8.90;99.90
22337;DHT22;14992;50.844;4.418;2024-03-23T04:02:23;8.90;99.90
22337;DHT22;14992;50.844;4.418;2024-03-23T04:04:51;9.00;99.90
22337;DHT22;14992;50.844;4.418;2024-03-23T04:07:19;9.00;99.90
22337;DHT22;14992;50.844;4.418;2024-03-23T04:09:49;9.00;99.90
22337;DHT22;14992;50.844;4.418;2024-03-23T04:12:16;9.00;99.90
22337;DHT22;14992;50.844;4.418;2024-03-23T04:14:44;9.00;99.90
22337;DHT22;14992;50.844;4.418;2024-03-23T04:17:11;9.00;99.90
22337;DHT22;14992;50.844;4.418;2024-03-23T04:19:38;9.00;99.90
22337;DHT22;14992;50.844;4.418;2024-03-23T04:22:05;8.90;99.90
22337;DHT22;14992;50.844;4.418;2024-03-23T04:24:35;8.90;99.90
22337;DHT22;14992;50.844;4.418;2024-03-23T04:27:01;8.90;99.90
22337;DHT22;14992;50.844;4.418;2024-03-23T04:29:29;8.90;99.90
22337;DHT22;14992;50.844;4.418;2024-03-23T04:31:56;8.90;99.90
22337;DHT22;14992;50.844;4.418;2024-03-23T04:34:24;9.00;99.90
22337;DHT22;14992;50.844;4.418;2024-03-23T04:36:51;9.00;99.90
22337;DHT22;14992;50.844;4.418;2024-03-23T04:39:19;8.90;99.90
22337;DHT22;14992;50.844;4.418;2024-03-23T04:41:48;9.00;99.90
22337;DHT22;14992;50.844;4.418;2024-03-23T04:44:16;9.00;99.90
22337;DHT22;14992;50.844;4.418;2024-03-23T04:46:44;9.00;99.90
22337;DHT22;14992;50.844;4.418;2024-03-23T04:49:13;9.00;99.90
22337;DHT22;14992;50.844;4.418;2024-03-23T04:51:41;9.00;99.90
22337;DHT22;14992;50.844;4.418;2024-03-23T04:54:12;9.10;99.90
22337;DHT22;14992;50.844;4.418;2024-03-23T04:56:40;9.10;99.90
22337;DHT22;14992;50.844;4.418;2024-03-23T04:59:09;9.10;99.90
22337;DHT22;14992;50.844;4.418;2024-03-23T05:01:37;9.00;99.90
22337;DHT22;14992;50.844;4.418;2024-03-23T05:04:09;8.90;99.90
22337;DHT22;14992;50.844;4.418;2024-03-23T05:06:36;8.70;99.90
22337;DHT22;14992;50.844;4.418;2024-03-23T05:09:04;8.60;99.90
22337;DHT22;14992;50.844;4.418;2024-03-23T05:11:32;8.50;99.90
22337;DHT22;14992;50.844;4.418;2024-03-23T05:14:00;8.50;99.90
22337;DHT22;14992;50.844;4.418;2024-03-23T05:16:28;8.40;99.90
22337;DHT22;14992;50.844;4.418;2024-03-23T05:18:56;8.40;99.90
22337;DHT22;14992;50.844;4.418;2024-03-23T05:21:23;8.40;99.90
22337;DHT22;14992;50.844;4.418;2024-03-23T05:23:50;8.40;99.90
22337;DHT22;14992;50.844;4.418;2024-03-23T05:26:17;8.50;99.90
22337;DHT22;14992;50.844;4.418;2024-03-23T05:28:45;8.50;99.90
22337;DHT22;14992;50.844;4.418;2024-03-23T05:31:12;8.50;99.90
22337;DHT22;14992;50.844;4.418;2024-03-23T05:33:41;8.60;99.90
22337;DHT22;14992;50.844;4.418;2024-03-23T05:36:08;8.60;99.90
22337;DHT22;14992;50.844;4.418;2024-03-23T05:38:37;8.60;99.90
22337;DHT22;14992;50.844;4.418;2024-03-23T05:41:04;8.60;99.90
22337;DHT22;14992;50.844;4.418;2024-03-23T05:43:32;8.60;99.90
22337;DHT22;14992;50.844;4.418;2024-03-23T05:46:00;8.60;99.90
22337;DHT22;14992;50.844;4.418;2024-03-23T05:48:30;8.60;99.90
22337;DHT22;14992;50.844;4.418;2024-03-23T05:50:58;8.60;99.90
22337;DHT22;14992;50.844;4.418;2024-03-23T05:53:26;8.50;99.90
22337;DHT22;14992;50.844;4.418;2024-03-23T05:56:00;8.50;99.90
22337;DHT22;14992;50.844;4.418;2024-03-23T05:58:30;8.60;99.90
22337;DHT22;14992;50.844;4.418;2024-03-23T06:01:00;8.60;99.90
22337;DHT22;14992;50.844;4.418;2024-03-23T06:03:29;8.60;99.90
22337;DHT22;14992;50.844;4.418;2024-03-23T06:05:57;8.60;99.90
22337;DHT22;14992;50.844;4.418;2024-03-23T06:08:25;8.60;99.90
22337;DHT22;14992;50.844;4.418;2024-03-23T06:10:51;8.70;99.90
22337;DHT22;14992;50.844;4.418;2024-03-23T06:13:20;8.70;99.90
22337;DHT22;14992;50.844;4.418;2024-03-23T06:15:51;8.70;99.90
22337;DHT22;14992;50.844;4.418;2024-03-23T06:18:19;8.90;99.90
22337;DHT22;14992;50.844;4.418;2024-03-23T06:20:45;8.90;99.90
22337;DHT22;14992;50.844;4.418;2024-03-23T06:23:14;9.00;99.90
22337;DHT22;14992;50.844;4.418;2024-03-23T06:25:42;9.00;99.90
22337;DHT22;14992;50.844;4.418;2024-03-23T06:28:10;9.00;99.90
22337;DHT22;14992;50.844;4.418;2024-03-23T06:30:37;8.90;99.90
22337;DHT22;14992;50.844;4.418;2024-03-23T06:33:05;8.90;99.90
22337;DHT22;14992;50.844;4.418;2024-03-23T06:35:32;8.80;99.90
22337;DHT22;14992;50.844;4.418;2024-03-23T06:37:59;8.80;99.90
22337;DHT22;14992;50.844;4.418;2024-03-23T06:40:28;8.80;99.90
22337;DHT22;14992;50.844;4.418;2024-03-23T06:42:55;8.90;99.90
22337;DHT22;14992;50.844;4.418;2024-03-23T06:45:22;8.90;99.90
22337;DHT22;14992;50.844;4.418;2024-03-23T06:47:50;9.00;99.90
22337;DHT22;14992;50.844;4.418;2024-03-23T06:50:18;8.90;99.90
22337;DHT22;14992;50.844;4.418;2024-03-23T06:52:45;9.00;99.90
22337;DHT22;14992;50.844;4.418;2024-03-23T06:55:12;9.10;99.90
22337;DHT22;14992;50.844;4.418;2024-03-23T06:57:41;9.10;99.90
22337;DHT22;14992;50.844;4.418;2024-03-23T07:00:09;9.20;99.90
22337;DHT22;14992;50.844;4.418;2024-03-23T07:02:37;9.30;99.90
22337;DHT22;14992;50.844;4.418;2024-03-23T07:05:04;9.30;99.90
22337;DHT22;14992;50.844;4.418;2024-03-23T07:07:33;9.30;99.90
22337;DHT22;14992;50.844;4.418;2024-03-23T07:10:00;9.10;99.90
22337;DHT22;14992;50.844;4.418;2024-03-23T07:12:28;9.10;99.90
22337;DHT22;14992;50.844;4.418;2024-03-23T07:14:56;8.90;99.90
22337;DHT22;14992;50.844;4.418;2024-03-23T07:17:24;8.60;99.90
22337;DHT22;14992;50.844;4.418;2024-03-23T07:19:51;8.50;99.90
22337;DHT22;14992;50.844;4.418;2024-03-23T07:22:19;8.30;99.90
22337;DHT22;14992;50.844;4.418;2024-03-23T07:24:45;8.20;99.90
22337;DHT22;14992;50.844;4.418;2024-03-23T07:27:13;8.10;99.90
22337;DHT22;14992;50.844;4.418;2024-03-23T07:29:40;8.00;99.90
22337;DHT22;14992;50.844;4.418;2024-03-23T07:32:09;7.90;99.90
22337;DHT22;14992;50.844;4.418;2024-03-23T07:34:38;8.00;99.90
22337;DHT22;14992;50.844;4.418;2024-03-23T07:37:05;8.20;99.90
22337;DHT22;14992;50.844;4.418;2024-03-23T07:39:32;8.40;99.90
22337;DHT22;14992;50.844;4.418;2024-03-23T07:42:00;8.50;99.90
22337;DHT22;14992;50.844;4.418;2024-03-23T07:44:27;8.50;99.90
22337;DHT22;14992;50.844;4.418;2024-03-23T07:46:55;8.70;99.90
22337;DHT22;14992;50.844;4.418;2024-03-23T07:49:23;8.80;99.90
22337;DHT22;14992;50.844;4.418;2024-03-23T07:51:51;8.80;99.90
22337;DHT22;14992;50.844;4.418;2024-03-23T07:54:17;8.90;99.90
22337;DHT22;14992;50.844;4.418;2024-03-23T07:56:45;9.20;99.90
22337;DHT22;14992;50.844;4.418;2024-03-23T07:59:12;9.40;99.90
22337;DHT22;14992;50.844;4.418;2024-03-23T08:01:40;9.40;99.90
22337;DHT22;14992;50.844;4.418;2024-03-23T08:04:06;9.30;99.90
22337;DHT22;14992;50.844;4.418;2024-03-23T08:06:36;9.20;99.90
22337;DHT22;14992;50.844;4.418;2024-03-23T08:09:04;9.20;99.90
22337;DHT22;14992;50.844;4.418;2024-03-23T08:11:32;9.30;99.90
22337;DHT22;14992;50.844;4.418;2024-03-23T08:14:01;9.70;99.90
22337;DHT22;14992;50.844;4.418;2024-03-23T08:16:29;9.60;99.90
22337;DHT22;14992;50.844;4.418;2024-03-23T08:18:55;9.60;99.90
22337;DHT22;14992;50.844;4.418;2024-03-23T08:21:23;9.70;99.90
22337;DHT22;14992;50.844;4.418;2024-03-23T08:23:53;9.70;99.90
22337;DHT22;14992;50.844;4.418;2024-03-23T08:26:20;9.80;99.90
22337;DHT22;14992;50.844;4.418;2024-03-23T08:28:47;9.90;99.90
22337;DHT22;14992;50.844;4.418;2024-03-23T08:31:15;10.10;99.90
22337;DHT22;14992;50.844;4.418;2024-03-23T08:33:42;9.90;99.90
22337;DHT22;14992;50.844;4.418;2024-03-23T08:36:10;9.90;99.90
22337;DHT22;14992;50.844;4.418;2024-03-23T08:38:38;10.00;99.90
22337;DHT22;14992;50.844;4.418;2024-03-23T08:41:09;10.10;99.90
22337;DHT22;14992;50.844;4.418;2024-03-23T08:43:36;10.20;99.90
22337;DHT22;14992;50.844;4.418;2024-03-23T08:46:06;10.00;99.90
22337;DHT22;14992;50.844;4.418;2024-03-23T08:48:34;10.00;99.90
22337;DHT22;14992;50.844;4.418;2024-03-23T08:51:02;9.80;99.90
22337;DHT22;14992;50.844;4.418;2024-03-23T08:53:29;9.70;99.90
22337;DHT22;14992;50.844;4.418;2024-03-23T08:55:57;9.70;99.90
22337;DHT22;14992;50.844;4.418;2024-03-23T08:58:27;9.60;99.90
22337;DHT22;14992;50.844;4.418;2024-03-23T09:01:02;9.70;99.90
22337;DHT22;14992;50.844;4.418;2024-03-23T09:03:29;9.80;99.90
22337;DHT22;14992;50.844;4.418;2024-03-23T09:05:57;9.80;99.90
22337;DHT22;14992;50.844;4.418;2024-03-23T09:08:25;9.80;99.90
22337;DHT22;14992;50.844;4.418;2024-03-23T09:10:52;10.10;99.90
22337;DHT22;14992;50.844;4.418;2024-03-23T09:13:19;10.20;99.90
22337;DHT22;14992;50.844;4.418;2024-03-23T09:15:50;10.40;99.90
22337;DHT22;14992;50.844;4.418;2024-03-23T09:18:17;10.50;99.90
22337;DHT22;14992;50.844;4.418;2024-03-23T09:20:45;10.40;99.90
22337;DHT22;14992;50.844;4.418;2024-03-23T09:23:12;10.20;99.90
22337;DHT22;14992;50.844;4.418;2024-03-23T09:25:39;10.40;99.90
22337;DHT22;14992;50.844;4.418;2024-03-23T09:28:07;10.60;99.90
22337;DHT22;14992;50.844;4.418;2024-03-23T09:30:36;10.70;99.90
22337;DHT22;14992;50.844;4.418;2024-03-23T09:33:10;10.90;99.90
22337;DHT22;14992;50.844;4.418;2024-03-23T09:35:38;10.80;99.90
22337;DHT22;14992;50.844;4.418;2024-03-23T09:38:05;10.70;99.90
22337;DHT22;14992;50.844;4.418;2024-03-23T09:40:33;10.60;99.90
22337;DHT22;14992;50.844;4.418;2024-03-23T09:43:00;10.40;99.90
22337;DHT22;14992;50.844;4.418;2024-03-23T09:45:29;10.30;99.90
22337;DHT22;14992;50.844;4.418;2024-03-23T09:47:56;10.10;99.90
22337;DHT22;14992;50.844;4.418;2024-03-23T09:50:25;10.20;99.90
22337;DHT22;14992;50.844;4.418;2024-03-23T09:52:52;10.40;99.90
22337;DHT22;14992;50.844;4.418;2024-03-23T09:55:20;10.40;99.90
22337;DHT22;14992;50.844;4.418;2024-03-23T09:57:46;10.40;99.90
22337;DHT22;14992;50.844;4.418;2024-03-23T10:00:15;10.50;99.90
22337;DHT22;14992;50.844;4.418;2024-03-23T10:02:42;10.80;99.90
22337;DHT22;14992;50.844;4.418;2024-03-23T10:05:20;10.70;99.90
22337;DHT22;14992;50.844;4.418;2024-03-23T10:07:49;10.60;99.90
22337;DHT22;14992;50.844;4.418;2024-03-23T10:10:18;10.50;99.90
22337;DHT22;14992;50.844;4.418;2024-03-23T10:12:45;10.50;99.90
22337;DHT22;14992;50.844;4.418;2024-03-23T10:15:21;10.50;99.90
22337;DHT22;14992;50.844;4.418;2024-03-23T10:17:48;10.60;99.90
22337;DHT22;14992;50.844;4.418;2024-03-23T10:20:19;10.80;99.90
22337;DHT22;14992;50.844;4.418;2024-03-23T10:22:46;10.90;99.90
22337;DHT22;14992;50.844;4.418;2024-03-23T10:25:15;10.90;99.90
22337;DHT22;14992;50.844;4.418;2024-03-23T10:27:42;11.10;99.90
22337;DHT22;14992;50.844;4.418;2024-03-23T10:30:12;11.10;99.90
22337;DHT22;14992;50.844;4.418;2024-03-23T10:32:39;11.30;99.90
22337;DHT22;14992;50.844;4.418;2024-03-23T10:35:17;11.50;99.90
22337;DHT22;14992;50.844;4.418;2024-03-23T10:37:45;11.60;99.90
22337;DHT22;14992;50.844;4.418;2024-03-23T10:40:17;11.40;99.90
22337;DHT22;14992;50.844;4.418;2024-03-23T10:42:44;11.20;99.90
22337;DHT22;14992;50.844;4.418;2024-03-23T10:45:12;11.00;99.90
22337;DHT22;14992;50.844;4.418;2024-03-23T10:47:39;11.00;99.90
22337;DHT22;14992;50.844;4.418;2024-03-23T10:50:07;11.10;99.90
22337;DHT22;14992;50.844;4.418;2024-03-23T10:52:37;11.10;99.70
22337;DHT22;14992;50.844;4.418;2024-03-23T10:55:06;11.40;99.90
22337;DHT22;14992;50.844;4.418;2024-03-23T10:57:40;11.70;99.90
22337;DHT22;14992;50.844;4.418;2024-03-23T11:00:10;11.90;97.10
22337;DHT22;14992;50.844;4.418;2024-03-23T11:02:37;11.90;96.00
22337;DHT22;14992;50.844;4.418;2024-03-23T11:05:29;11.90;94.40
22337;DHT22;14992;50.844;4.418;2024-03-23T11:07:56;11.90;93.50
22337;DHT22;14992;50.844;4.418;2024-03-23T11:10:27;12.00;93.20
22337;DHT22;14992;50.844;4.418;2024-03-23T11:12:57;12.30;92.20
22337;DHT22;14992;50.844;4.418;2024-03-23T11:15:25;12.20;91.20
22337;DHT22;14992;50.844;4.418;2024-03-23T11:18:07;12.00;91.70
22337;DHT22;14992;50.844;4.418;2024-03-23T11:20:35;12.00;90.70
22337;DHT22;14992;50.844;4.418;2024-03-23T11:23:02;11.80;91.00
22337;DHT22;14992;50.844;4.418;2024-03-23T11:25:30;12.00;91.00
22337;DHT22;14992;50.844;4.418;2024-03-23T11:28:10;12.00;88.20
22337;DHT22;14992;50.844;4.418;2024-03-23T11:30:38;11.90;88.10
22337;DHT22;14992;50.844;4.418;2024-03-23T11:33:05;11.90;89.80
22337;DHT22;14992;50.844;4.418;2024-03-23T11:35:34;12.00;87.10
22337;DHT22;14992;50.844;4.418;2024-03-23T11:38:06;12.00;87.60
22337;DHT22;14992;50.844;4.418;2024-03-23T11:40:35;11.90;89.60
22337;DHT22;14992;50.844;4.418;2024-03-23T11:43:05;11.90;90.00
22337;DHT22;14992;50.844;4.418;2024-03-23T11:45:37;11.80;90.10
22337;DHT22;14992;50.844;4.418;2024-03-23T11:48:06;11.60;90.20
22337;DHT22;14992;50.844;4.418;2024-03-23T11:50:36;11.50;90.10
22337;DHT22;14992;50.844;4.418;2024-03-23T11:53:12;11.10;91.10
22337;DHT22;14992;50.844;4.418;2024-03-23T11:55:47;11.10;92.20
22337;DHT22;14992;50.844;4.418;2024-03-23T11:58:17;11.10;92.10
22337;DHT22;14992;50.844;4.418;2024-03-23T12:00:50;11.30;93.30
22337;DHT22;14992;50.844;4.418;2024-03-23T12:03:18;11.30;92.90
22337;DHT22;14992;50.844;4.418;2024-03-23T12:05:49;11.30;92.80
22337;DHT22;14992;50.844;4.418;2024-03-23T12:08:21;11.20;92.40
22337;DHT22;14992;50.844;4.418;2024-03-23T12:10:50;11.20;92.30
22337;DHT22;14992;50.844;4.418;2024-03-23T12:13:19;11.10;92.80
22337;DHT22;14992;50.844;4.418;2024-03-23T12:15:49;11.20;92.50
22337;DHT22;14992;50.844;4.418;2024-03-23T12:18:16;11.30;91.50
22337;DHT22;14992;50.844;4.418;2024-03-23T12:20:44;11.20;91.00
22337;DHT22;14992;50.844;4.418;2024-03-23T12:23:12;11.10;91.80
22337;DHT22;14992;50.844;4.418;2024-03-23T12:25:43;11.20;91.00
22337;DHT22;14992;50.844;4.418;2024-03-23T12:28:10;11.20;94.60
22337;DHT22;14992;50.844;4.418;2024-03-23T12:30:40;10.50;99.90
22337;DHT22;14992;50.844;4.418;2024-03-23T12:33:07;10.00;99.90
22337;DHT22;14992;50.844;4.418;2024-03-23T12:35:37;9.70;99.90
22337;DHT22;14992;50.844;4.418;2024-03-23T12:38:04;9.50;99.10
22337;DHT22;14992;50.844;4.418;2024-03-23T12:40:31;9.50;99.90
22337;DHT22;14992;50.844;4.418;2024-03-23T12:42:58;9.80;99.90
22337;DHT22;14992;50.844;4.418;2024-03-23T12:45:26;10.00;99.90
22337;DHT22;14992;50.844;4.418;2024-03-23T12:47:54;10.20;99.90
22337;DHT22;14992;50.844;4.418;2024-03-23T12:50:22;10.50;99.90
22337;DHT22;14992;50.844;4.418;2024-03-23T12:52:49;10.80;99.90
22337;DHT22;14992;50.844;4.418;2024-03-23T12:55:17;10.90;99.90
22337;DHT22;14992;50.844;4.418;2024-03-23T12:57:44;11.20;96.80
22337;DHT22;14992;50.844;4.418;2024-03-23T13:00:13;11.50;96.80
22337;DHT22;14992;50.844;4.418;2024-03-23T13:02:42;11.90;94.10
22337;DHT22;14992;50.844;4.418;2024-03-23T13:05:11;12.00;90.20
22337;DHT22;14992;50.844;4.418;2024-03-23T13:07:38;11.80;86.70
22337;DHT22;14992;50.844;4.418;2024-03-23T13:10:07;12.00;86.90
22337;DHT22;14992;50.844;4.418;2024-03-23T13:12:35;12.30;82.40
22337;DHT22;14992;50.844;4.418;2024-03-23T13:15:03;12.50;77.30
22337;DHT22;14992;50.844;4.418;2024-03-23T13:17:31;12.90;76.90
22337;DHT22;14992;50.844;4.418;2024-03-23T13:19:58;13.30;74.80
22337;DHT22;14992;50.844;4.418;2024-03-23T13:22:26;13.40;74.00
22337;DHT22;14992;50.844;4.418;2024-03-23T13:24:54;13.10;74.40
22337;DHT22;14992;50.844;4.418;2024-03-23T13:27:21;13.10;75.60
22337;DHT22;14992;50.844;4.418;2024-03-23T13:29:49;12.90;75.50
22337;DHT22;14992;50.844;4.418;2024-03-23T13:32:16;12.70;76.40
22337;DHT22;14992;50.844;4.418;2024-03-23T13:34:44;12.80;75.30
22337;DHT22;14992;50.844;4.418;2024-03-23T13:37:11;12.70;73.70
22337;DHT22;14992;50.844;4.418;2024-03-23T13:39:40;12.80;74.10
22337;DHT22;14992;50.844;4.418;2024-03-23T13:42:08;12.90;74.00
22337;DHT22;14992;50.844;4.418;2024-03-23T13:44:36;12.70;73.30
22337;DHT22;14992;50.844;4.418;2024-03-23T13:47:03;12.20;75.60
22337;DHT22;14992;50.844;4.418;2024-03-23T13:49:31;12.10;78.90
22337;DHT22;14992;50.844;4.418;2024-03-23T13:51:59;12.00;79.40
22337;DHT22;14992;50.844;4.418;2024-03-23T13:54:27;11.80;81.70
22337;DHT22;14992;50.844;4.418;2024-03-23T13:56:56;11.90;86.90
22337;DHT22;14992;50.844;4.418;2024-03-23T13:59:24;12.30;83.30
22337;DHT22;14992;50.844;4.418;2024-03-23T14:01:51;12.40;82.00
22337;DHT22;14992;50.844;4.418;2024-03-23T14:04:19;12.30;82.50
22337;DHT22;14992;50.844;4.418;2024-03-23T14:06:46;12.60;82.80
22337;DHT22;14992;50.844;4.418;2024-03-23T14:09:14;12.80;82.00
22337;DHT22;14992;50.844;4.418;2024-03-23T14:11:46;12.90;79.90
22337;DHT22;14992;50.844;4.418;2024-03-23T14:14:15;12.90;80.30
22337;DHT22;14992;50.844;4.418;2024-03-23T14:16:43;12.80;81.00
22337;DHT22;14992;50.844;4.418;2024-03-23T14:19:11;12.50;79.80
22337;DHT22;14992;50.844;4.418;2024-03-23T14:21:38;12.20;80.60
22337;DHT22;14992;50.844;4.418;2024-03-23T14:24:06;12.20;81.10
22337;DHT22;14992;50.844;4.418;2024-03-23T14:26:35;12.10;81.50
22337;DHT22;14992;50.844;4.418;2024-03-23T14:29:04;11.90;81.60
22337;DHT22;14992;50.844;4.418;2024-03-23T14:31:32;11.70;81.90
22337;DHT22;14992;50.844;4.418;2024-03-23T14:34:00;11.60;82.80
22337;DHT22;14992;50.844;4.418;2024-03-23T14:36:27;11.60;84.90
22337;DHT22;14992;50.844;4.418;2024-03-23T14:38:55;11.70;85.20
22337;DHT22;14992;50.844;4.418;2024-03-23T14:41:21;11.70;84.60
22337;DHT22;14992;50.844;4.418;2024-03-23T14:43:49;11.60;85.20
22337;DHT22;14992;50.844;4.418;2024-03-23T14:46:17;11.60;86.10
22337;DHT22;14992;50.844;4.418;2024-03-23T14:48:46;11.70;83.30
22337;DHT22;14992;50.844;4.418;2024-03-23T14:51:13;11.80;81.70
22337;DHT22;14992;50.844;4.418;2024-03-23T14:53:45;12.00;80.50
22337;DHT22;14992;50.844;4.418;2024-03-23T14:56:12;12.30;79.60
22337;DHT22;14992;50.844;4.418;2024-03-23T14:58:42;12.40;78.40
22337;DHT22;14992;50.844;4.418;2024-03-23T15:01:09;12.20;78.20
22337;DHT22;14992;50.844;4.418;2024-03-23T15:03:37;12.20;78.50
22337;DHT22;14992;50.844;4.418;2024-03-23T15:06:07;12.50;79.20
22337;DHT22;14992;50.844;4.418;2024-03-23T15:08:36;12.40;78.80
22337;DHT22;14992;50.844;4.418;2024-03-23T15:11:03;12.30;79.90
22337;DHT22;14992;50.844;4.418;2024-03-23T15:13:32;12.40;81.50
22337;DHT22;14992;50.844;4.418;2024-03-23T15:15:59;12.70;80.80
22337;DHT22;14992;50.844;4.418;2024-03-23T15:18:27;12.60;80.80
22337;DHT22;14992;50.844;4.418;2024-03-23T15:20:56;12.60;81.20
22337;DHT22;14992;50.844;4.418;2024-03-23T15:23:25;12.60;80.50
22337;DHT22;14992;50.844;4.418;2024-03-23T15:25:55;12.50;80.50
22337;DHT22;14992;50.844;4.418;2024-03-23T15:28:23;12.40;80.30
22337;DHT22;14992;50.844;4.418;2024-03-23T15:30:50;12.40;81.30
22337;DHT22;14992;50.844;4.418;2024-03-23T15:33:18;12.40;82.10
22337;DHT22;14992;50.844;4.418;2024-03-23T15:35:44;12.60;82.60
22337;DHT22;14992;50.844;4.418;2024-03-23T15:38:12;12.70;81.70
22337;DHT22;14992;50.844;4.418;2024-03-23T15:40:40;12.90;79.30
22337;DHT22;14992;50.844;4.418;2024-03-23T15:43:08;12.60;78.70
22337;DHT22;14992;50.844;4.418;2024-03-23T15:45:35;12.60;79.60
22337;DHT22;14992;50.844;4.418;2024-03-23T15:48:05;12.60;79.80
22337;DHT22;14992;50.844;4.418;2024-03-23T15:50:32;12.50;79.70
22337;DHT22;14992;50.844;4.418;2024-03-23T15:52:59;12.40;80.00
22337;DHT22;14992;50.844;4.418;2024-03-23T15:55:26;12.60;80.80
22337;DHT22;14992;50.844;4.418;2024-03-23T15:57:56;12.60;80.70
22337;DHT22;14992;50.844;4.418;2024-03-23T16:00:22;12.60;80.60
22337;DHT22;14992;50.844;4.418;2024-03-23T16:02:50;12.40;80.90
22337;DHT22;14992;50.844;4.418;2024-03-23T16:05:17;12.50;81.60
22337;DHT22;14992;50.844;4.418;2024-03-23T16:07:45;12.50;80.70
22337;DHT22;14992;50.844;4.418;2024-03-23T16:10:12;12.30;79.00
22337;DHT22;14992;50.844;4.418;2024-03-23T16:12:41;12.40;79.40
22337;DHT22;14992;50.844;4.418;2024-03-23T16:15:11;12.30;76.90
22337;DHT22;14992;50.844;4.418;2024-03-23T16:17:41;12.30;77.30
22337;DHT22;14992;50.844;4.418;2024-03-23T16:20:08;12.40;77.70
22337;DHT22;14992;50.844;4.418;2024-03-23T16:22:36;12.50;76.40
22337;DHT22;14992;50.844;4.418;2024-03-23T16:25:03;12.40;75.50
22337;DHT22;14992;50.844;4.418;2024-03-23T16:27:33;12.30;74.40
22337;DHT22;14992;50.844;4.418;2024-03-23T16:30:00;12.20;72.20
22337;DHT22;14992;50.844;4.418;2024-03-23T16:32:30;12.10;72.80
22337;DHT22;14992;50.844;4.418;2024-03-23T16:35:01;12.00;73.90
22337;DHT22;14992;50.844;4.418;2024-03-23T16:37:29;12.00;73.40
22337;DHT22;14992;50.844;4.418;2024-03-23T16:39:56;12.00;73.20
22337;DHT22;14992;50.844;4.418;2024-03-23T16:42:24;11.90;73.10
22337;DHT22;14992;50.844;4.418;2024-03-23T16:44:50;11.90;73.60
22337;DHT22;14992;50.844;4.418;2024-03-23T16:47:18;12.00;73.20
22337;DHT22;14992;50.844;4.418;2024-03-23T16:49:46;12.00;73.60
22337;DHT22;14992;50.844;4.418;2024-03-23T16:52:14;12.10;73.10
22337;DHT22;14992;50.844;4.418;2024-03-23T16:54:41;11.80;73.20
22337;DHT22;14992;50.844;4.418;2024-03-23T16:57:08;11.80;74.90
22337;DHT22;14992;50.844;4.418;2024-03-23T16:59:35;11.90;74.80
22337;DHT22;14992;50.844;4.418;2024-03-23T17:02:03;12.00;73.90
22337;DHT22;14992;50.844;4.418;2024-03-23T17:04:30;11.90;73.80
22337;DHT22;14992;50.844;4.418;2024-03-23T17:06:59;11.80;74.20
22337;DHT22;14992;50.844;4.418;2024-03-23T17:09:26;11.70;74.70
22337;DHT22;14992;50.844;4.418;2024-03-23T17:11:54;11.70;75.20
22337;DHT22;14992;50.844;4.418;2024-03-23T17:14:21;11.70;75.60
22337;DHT22;14992;50.844;4.418;2024-03-23T17:16:51;11.80;75.80
22337;DHT22;14992;50.844;4.418;2024-03-23T17:19:18;11.80;75.90
22337;DHT22;14992;50.844;4.418;2024-03-23T17:21:45;11.70;76.50
22337;DHT22;14992;50.844;4.418;2024-03-23T17:24:14;11.60;77.20
22337;DHT22;14992;50.844;4.418;2024-03-23T17:26:42;11.50;78.30
22337;DHT22;14992;50.844;4.418;2024-03-23T17:29:08;11.40;79.40
22337;DHT22;14992;50.844;4.418;2024-03-23T17:31:36;11.20;80.30
22337;DHT22;14992;50.844;4.418;2024-03-23T17:34:04;11.10;81.50
22337;DHT22;14992;50.844;4.418;2024-03-23T17:36:32;11.20;82.20
22337;DHT22;14992;50.844;4.418;2024-03-23T17:38:59;11.20;82.50
22337;DHT22;14992;50.844;4.418;2024-03-23T17:41:28;11.40;82.40
22337;DHT22;14992;50.844;4.418;2024-03-23T17:43:55;11.30;82.70
22337;DHT22;14992;50.844;4.418;2024-03-23T17:46:23;11.10;88.20
22337;DHT22;14992;50.844;4.418;2024-03-23T17:48:50;10.50;93.30
22337;DHT22;14992;50.844;4.418;2024-03-23T17:51:18;10.10;97.20
22337;DHT22;14992;50.844;4.418;2024-03-23T17:53:45;9.90;99.60
22337;DHT22;14992;50.844;4.418;2024-03-23T17:56:13;9.60;99.90